Terminal Aerodrome Forecast
Issued by NWS Sterling, VA

Current Version | Previous Version | Text Only | Print | Product List | Glossary Off
Versions: 1 2 3 4 5 6 7 8 9 10 11 12 13 14

336
FTUS41 KLWX 152328
TAFMRB
TAF
KMRB 152328Z 1600/1624 VRB03KT P6SM BKN045
     FM160200 26006KT P6SM FEW045
     FM160700 26006KT P6SM SKC
     FM161100 22006KT P6SM SCT200
     FM161500 24010KT P6SM SCT070
     FM162200 26006KT P6SM FEW110=

USA.gov is the U.S. government's official web portal to all federal, state and local government web resources and services.